createdAt,value
2023-02-03T00:01:08.679Z,21.50
2023-02-03T00:11:10.984Z,23.33
2023-02-03T00:21:15.066Z,23.47
2023-02-03T00:31:19.881Z,21.33
2023-02-03T00:41:22.857Z,18.80
2023-02-03T00:51:26.788Z,19.90
2023-02-03T01:01:30.198Z,19.80
2023-02-03T01:11:32.775Z,19.83
2023-02-03T01:21:36.259Z,19.40
2023-02-03T01:31:40.698Z,18.70
2023-02-03T01:41:43.144Z,19.17
2023-02-03T01:51:49.245Z,18.43
2023-02-03T02:01:53.132Z,20.53
2023-02-03T02:11:55.232Z,17.83
2023-02-03T02:22:10.783Z,17.60
2023-02-03T02:32:34.785Z,19.00
2023-02-03T02:42:46.894Z,17.30
2023-02-03T02:52:50.324Z,21.87
2023-02-03T03:02:54.212Z,16.67
2023-02-03T03:13:02.219Z,13.20
2023-02-03T03:23:08.205Z,12.53
2023-02-03T03:33:10.542Z,15.57
2023-02-03T03:43:19.403Z,8.87
2023-02-03T03:53:23.017Z,14.90
2023-02-03T04:03:28.994Z,10.17
2023-02-03T04:13:31.379Z,9.63
2023-02-03T04:23:33.457Z,12.77
2023-02-03T04:33:35.636Z,10.90
2023-02-03T04:43:37.738Z,7.80
2023-02-03T04:53:39.964Z,9.40
2023-02-03T05:03:42.158Z,7.87
2023-02-03T05:13:44.343Z,8.00
2023-02-03T05:23:46.678Z,10.50
2023-02-03T05:33:48.783Z,8.30
2023-02-03T05:43:50.895Z,10.90
2023-02-03T05:53:53.729Z,6.17
2023-02-03T06:03:56.153Z,5.90
2023-02-03T06:13:58.694Z,9.17
2023-02-03T06:24:00.887Z,5.83
2023-02-03T06:34:03.491Z,8.67
2023-02-03T06:44:05.664Z,5.90
2023-02-03T06:54:07.765Z,6.93
2023-02-03T07:04:10.202Z,9.23
2023-02-03T07:14:12.253Z,13.60
2023-02-03T07:24:14.466Z,7.83
2023-02-03T07:34:16.732Z,7.43
2023-02-03T07:44:18.838Z,6.93
2023-02-03T07:54:20.912Z,6.27
2023-02-03T08:04:24.370Z,9.57
2023-02-03T08:14:26.463Z,9.33
2023-02-03T08:24:28.780Z,8.30
2023-02-03T08:34:31.004Z,11.67
2023-02-03T08:44:34.198Z,6.80
2023-02-03T08:54:36.781Z,8.37
2023-02-03T09:04:39.002Z,7.77
2023-02-03T09:14:41.185Z,8.73
2023-02-03T09:24:43.404Z,10.47
2023-02-03T09:34:45.507Z,9.50
2023-02-03T09:44:54.495Z,9.60
2023-02-03T09:55:06.758Z,7.87
2023-02-03T10:05:31.339Z,6.50
2023-02-03T10:16:02.847Z,9.37
2023-02-03T10:26:10.374Z,9.10
2023-02-03T10:36:38.683Z,10.87
2023-02-03T10:46:43.084Z,10.23
2023-02-03T10:56:45.757Z,10.33
2023-02-03T11:07:01.670Z,9.40
2023-02-03T11:17:08.063Z,9.70
2023-02-03T11:27:13.319Z,11.43
2023-02-03T11:37:27.093Z,8.10
2023-02-03T11:47:29.460Z,9.43
2023-02-03T11:57:39.774Z,8.63
2023-02-03T12:07:41.821Z,9.13
2023-02-03T12:18:21.499Z,10.10
2023-02-03T12:28:49.123Z,10.17
2023-02-03T12:39:04.920Z,10.93
2023-02-03T12:49:41.930Z,8.13
2023-02-03T13:00:32.788Z,8.77
2023-02-03T13:10:53.336Z,9.50
2023-02-03T13:20:56.220Z,6.93
2023-02-03T13:31:14.439Z,9.13
2023-02-03T13:41:30.957Z,10.73
2023-02-03T13:51:39.310Z,18.03
2023-02-03T14:01:41.950Z,13.30
2023-02-03T14:11:45.230Z,12.10
2023-02-03T14:21:59.587Z,14.43
2023-02-03T14:32:09.952Z,12.27
2023-02-03T14:42:18.439Z,16.87
2023-02-03T14:52:46.319Z,14.07
2023-02-03T15:03:07.558Z,10.07
2023-02-03T15:13:30.499Z,15.30
2023-02-03T15:23:43.107Z,14.23
2023-02-03T15:33:45.926Z,12.33
2023-02-03T15:43:49.728Z,13.50
2023-02-03T15:53:59.175Z,11.00
2023-02-03T16:04:01.408Z,15.63
2023-02-03T16:14:10.394Z,15.43
2023-02-03T16:24:41.009Z,9.87
2023-02-03T16:35:01.884Z,17.17
2023-02-03T16:45:25.339Z,14.10
2023-02-03T16:55:27.960Z,18.60
2023-02-03T17:05:30.594Z,21.07
2023-02-03T17:15:33.319Z,17.77
2023-02-03T17:25:38.815Z,14.47
2023-02-03T17:35:42.659Z,16.90
2023-02-03T17:56:19.673Z,19.27
2023-02-03T18:06:23.192Z,13.60
2023-02-03T18:16:29.320Z,10.73
2023-02-03T18:26:37.045Z,15.87
2023-02-03T18:46:42.738Z,17.17
2023-02-03T18:56:47.661Z,17.33
2023-02-03T19:06:51.583Z,16.07
2023-02-03T19:16:55.249Z,21.60
2023-02-03T19:26:58.442Z,22.30
2023-02-03T19:37:00.700Z,12.57
2023-02-03T19:47:03.891Z,19.93
2023-02-03T19:57:06.002Z,16.90
2023-02-03T20:07:08.690Z,23.47
2023-02-03T20:17:12.449Z,19.70
2023-02-03T20:27:19.992Z,18.83
2023-02-03T20:37:23.193Z,11.57
2023-02-03T20:47:26.118Z,18.07
2023-02-03T20:57:30.251Z,10.83
2023-02-03T21:07:32.701Z,13.83
2023-02-03T21:17:36.036Z,18.47
2023-02-03T21:27:39.628Z,13.73
2023-02-03T21:37:42.148Z,12.33
2023-02-03T21:47:45.169Z,13.30
2023-02-03T21:57:48.428Z,16.97
2023-02-03T22:07:51.546Z,13.83
2023-02-03T22:17:53.742Z,18.17
2023-02-03T22:27:56.168Z,17.10
2023-02-03T22:37:58.636Z,16.03
2023-02-03T22:48:01.081Z,16.27
2023-02-03T22:58:03.625Z,19.23
2023-02-03T23:08:05.826Z,15.90
2023-02-03T23:18:07.937Z,22.60
2023-02-03T23:28:10.232Z,15.50
2023-02-03T23:38:14.454Z,19.33
2023-02-03T23:48:17.863Z,16.33
2023-02-03T23:58:20.094Z,21.27
